Time;durP1;ratioP1;P1;durP2;ratioP2;P2;SDS_P1;SDS_P2;PMS_P1;PMS_P2;Temp;Humidity;BMP_temperature;BMP_pressure;BME280_temperature;BME280_humidity;BME280_pressure;Samples;Min_cycle;Max_cycle;Signal;HPM_P1;HPM_P2
2023/05/09 00:00:49;;;;;;;42.75;18.13;;;14.50;99.90;;;;;;5014852;28;20033;-76
2023/05/09 00:03:15;;;;;;;42.95;16.92;;;14.50;99.90;;;;;;5014890;28;20049;-77
2023/05/09 00:05:40;;;;;;;38.13;15.50;;;14.50;99.90;;;;;;5014821;28;20128;-77
2023/05/09 00:08:06;;;;;;;48.40;18.88;;;14.40;99.90;;;;;;5015925;28;20034;-77
2023/05/09 00:10:32;;;;;;;41.60;18.77;;;14.40;99.90;;;;;;5015072;28;20033;-78
2023/05/09 00:12:58;;;;;;;51.20;18.13;;;14.40;99.90;;;;;;5016247;28;20026;-78
2023/05/09 00:15:24;;;;;;;49.88;18.83;;;14.30;99.90;;;;;;5014453;28;20033;-78
2023/05/09 00:17:50;;;;;;;47.97;18.35;;;14.30;99.90;;;;;;5014386;28;20108;-77
2023/05/09 00:20:16;;;;;;;46.25;17.27;;;14.30;99.90;;;;;;5016174;28;20057;-78
2023/05/09 00:22:42;;;;;;;45.60;19.15;;;;;;;;;;5014116;28;20567;-77
2023/05/09 00:25:09;;;;;;;45.92;18.05;;;14.30;99.90;;;;;;5015596;28;20096;-76
2023/05/09 00:27:35;;;;;;;48.88;18.75;;;14.30;99.90;;;;;;5015243;28;20021;-78
2023/05/09 00:30:00;;;;;;;50.47;19.50;;;14.30;99.90;;;;;;5014268;28;20393;-77
2023/05/09 00:32:27;;;;;;;44.25;17.25;;;14.30;99.90;;;;;;5015113;28;20018;-78
2023/05/09 00:34:53;;;;;;;42.55;17.70;;;14.30;99.90;;;;;;5015512;28;20037;-77
2023/05/09 00:37:19;;;;;;;46.28;17.58;;;14.20;99.90;;;;;;5015651;28;20022;-77
2023/05/09 00:39:49;;;;;;;46.25;18.70;;;14.30;99.90;;;;;;5014331;28;20478;-77
2023/05/09 00:42:15;;;;;;;54.38;18.88;;;14.20;99.90;;;;;;5013804;28;20529;-77
2023/05/09 00:44:41;;;;;;;45.80;17.45;;;14.30;99.90;;;;;;5014143;28;20084;-78
2023/05/09 00:47:09;;;;;;;42.63;16.45;;;14.30;99.90;;;;;;5015211;28;20025;-77
2023/05/09 00:49:35;;;;;;;44.30;18.35;;;14.20;99.90;;;;;;5014883;28;20501;-78
2023/05/09 00:52:01;;;;;;;45.72;18.90;;;14.20;99.90;;;;;;5015450;28;20026;-77
2023/05/09 00:54:27;;;;;;;47.65;18.25;;;14.20;99.90;;;;;;5015383;28;20061;-77
2023/05/09 00:56:53;;;;;;;51.03;17.65;;;14.20;99.90;;;;;;5015366;28;20036;-77
2023/05/09 00:59:19;;;;;;;50.83;19.38;;;14.20;99.90;;;;;;5015264;28;20037;-77
2023/05/09 01:01:44;;;;;;;46.55;19.05;;;14.50;99.90;;;;;;5013973;28;20050;-77
2023/05/09 01:04:12;;;;;;;53.83;20.80;;;14.30;99.90;;;;;;5015577;28;20018;-77
2023/05/09 01:06:58;;;;;;;42.97;18.33;;;14.30;99.90;;;;;;5012531;28;20022;-77
2023/05/09 01:09:50;;;;;;;48.97;18.40;;;14.60;99.90;;;;;;4993059;28;20125;-77
2023/05/09 01:12:36;;;;;;;47.03;17.17;;;14.30;99.90;;;;;;5014248;28;20021;-77
2023/05/09 01:15:10;;;;;;;55.33;18.95;;;14.30;99.90;;;;;;5013698;28;20026;-77
2023/05/09 01:17:54;;;;;;;46.78;17.23;;;14.20;99.90;;;;;;5013917;28;20072;-77
2023/05/09 01:20:28;;;;;;;39.72;16.70;;;14.20;99.90;;;;;;5014024;28;20046;-77
2023/05/09 01:23:36;;;;;;;44.35;18.65;;;14.20;99.90;;;;;;5013839;28;20443;-77
2023/05/09 01:26:17;;;;;;;48.83;16.73;;;14.20;99.90;;;;;;5013020;28;20116;-77
2023/05/09 01:29:03;;;;;;;45.08;17.77;;;14.20;99.90;;;;;;5012786;28;20069;-76
2023/05/09 01:31:31;;;;;;;41.90;16.98;;;14.20;99.90;;;;;;5012162;28;20037;-77
2023/05/09 01:34:01;;;;;;;45.72;17.42;;;14.20;99.90;;;;;;5013238;28;20025;-77
2023/05/09 01:36:31;;;;;;;46.40;17.40;;;14.10;99.90;;;;;;5011841;28;20022;-77
2023/05/09 01:38:58;;;;;;;46.95;17.27;;;14.20;99.90;;;;;;5013138;28;20512;-77
2023/05/09 01:41:26;;;;;;;47.08;17.10;;;14.20;99.90;;;;;;5011980;28;20018;-77
2023/05/09 01:43:53;;;;;;;45.33;17.63;;;14.10;99.90;;;;;;5013454;28;20029;-77
2023/05/09 01:46:20;;;;;;;40.95;15.95;;;14.20;99.90;;;;;;5013489;28;20030;-77
2023/05/09 01:48:48;;;;;;;43.70;17.90;;;14.10;99.90;;;;;;5011568;28;20543;-77
2023/05/09 01:51:15;;;;;;;49.35;18.55;;;14.20;99.90;;;;;;5011987;28;20030;-77
2023/05/09 01:53:42;;;;;;;45.65;16.88;;;14.10;99.90;;;;;;5013359;28;20079;-77
2023/05/09 01:56:08;;;;;;;52.90;18.88;;;14.10;99.90;;;;;;5013061;28;20026;-77
2023/05/09 01:58:36;;;;;;;48.00;17.48;;;14.10;99.90;;;;;;5013108;28;20025;-77
2023/05/09 02:01:02;;;;;;;45.92;16.90;;;14.10;99.90;;;;;;5013294;28;20474;-77
2023/05/09 02:03:28;;;;;;;46.40;18.20;;;14.10;99.90;;;;;;5013155;28;20033;-77
2023/05/09 02:05:55;;;;;;;42.30;18.00;;;14.10;99.90;;;;;;5013007;28;20041;-77
2023/05/09 02:08:22;;;;;;;46.05;19.70;;;;;;;;;;5012918;28;20022;-77
2023/05/09 02:10:48;;;;;;;42.40;17.63;;;14.10;99.90;;;;;;5013132;28;20077;-77
2023/05/09 02:13:14;;;;;;;46.08;17.98;;;14.10;99.90;;;;;;5013138;28;20026;-77
2023/05/09 02:15:41;;;;;;;45.97;17.35;;;14.10;99.90;;;;;;5028243;28;20551;-76
2023/05/09 02:18:07;;;;;;;52.58;19.80;;;14.10;99.90;;;;;;5014029;28;20080;-77
2023/05/09 02:20:34;;;;;;;49.10;17.70;;;14.10;99.90;;;;;;5031671;28;20030;-77
2023/05/09 02:23:00;;;;;;;43.80;17.08;;;14.80;99.90;;;;;;5015116;28;20018;-77
2023/05/09 02:25:26;;;;;;;49.00;18.92;;;14.20;99.90;;;;;;5015157;28;20370;-77
2023/05/09 02:27:54;;;;;;;39.55;16.27;;;14.10;99.90;;;;;;5014935;28;20033;-77
2023/05/09 02:30:24;;;;;;;41.80;16.63;;;14.10;99.90;;;;;;5015354;28;20022;-77
2023/05/09 02:33:00;;;;;;;45.45;17.92;;;14.00;99.90;;;;;;5015214;28;20041;-77
2023/05/09 02:35:28;;;;;;;42.03;16.98;;;14.00;99.90;;;;;;5014853;28;20393;-77
2023/05/09 02:37:55;;;;;;;42.08;16.95;;;14.00;99.90;;;;;;5031293;28;20135;-77
2023/05/09 02:40:21;;;;;;;44.65;15.40;;;14.00;99.90;;;;;;5014870;28;20474;-77
2023/05/09 02:42:47;;;;;;;38.45;16.23;;;14.00;99.90;;;;;;5016396;28;20101;-77
2023/05/09 02:45:13;;;;;;;44.33;16.38;;;14.00;99.90;;;;;;5016277;28;20378;-77
2023/05/09 02:47:39;;;;;;;41.85;15.98;;;14.00;99.90;;;;;;5016029;28;20074;-77
2023/05/09 02:50:05;;;;;;;38.10;15.10;;;14.00;99.90;;;;;;5016076;28;20034;-77
2023/05/09 02:52:31;;;;;;;37.42;15.18;;;14.00;99.90;;;;;;5015977;28;20021;-77
2023/05/09 02:54:57;;;;;;;39.22;14.35;;;14.00;99.90;;;;;;5015835;28;20490;-77
2023/05/09 02:57:22;;;;;;;38.15;15.07;;;14.00;99.90;;;;;;5014540;28;20105;-77
2023/05/09 02:59:48;;;;;;;36.10;14.32;;;14.00;99.90;;;;;;5014507;28;20053;-77
2023/05/09 03:02:14;;;;;;;34.58;15.13;;;14.00;99.90;;;;;;5014383;28;20022;-77
2023/05/09 03:04:40;;;;;;;32.13;14.20;;;14.00;99.90;;;;;;5014631;28;20033;-77
2023/05/09 03:07:05;;;;;;;35.90;14.35;;;14.00;99.90;;;;;;5015630;28;20143;-77
2023/05/09 03:09:31;;;;;;;32.55;14.13;;;14.00;99.90;;;;;;5015603;28;20219;-77
2023/05/09 03:11:57;;;;;;;32.30;13.63;;;13.90;99.90;;;;;;5014408;28;20018;-77
2023/05/09 03:14:22;;;;;;;35.78;13.68;;;14.00;99.90;;;;;;5014346;28;20038;-77
2023/05/09 03:16:48;;;;;;;30.83;13.13;;;14.00;99.90;;;;;;5014209;28;20497;-77
2023/05/09 03:19:14;;;;;;;34.63;13.65;;;14.00;99.90;;;;;;5030695;28;20026;-77
2023/05/09 03:21:40;;;;;;;29.08;13.02;;;14.00;99.90;;;;;;5015548;28;20022;-77
2023/05/09 03:24:07;;;;;;;40.63;13.27;;;14.00;99.90;;;;;;5015456;28;20050;-77
2023/05/09 03:26:34;;;;;;;31.55;11.68;;;14.00;99.90;;;;;;5015366;28;20029;-77
2023/05/09 03:29:00;;;;;;;32.28;13.13;;;13.90;99.90;;;;;;5015291;28;20437;-77
2023/05/09 03:31:26;;;;;;;34.75;12.73;;;14.00;99.90;;;;;;5015387;28;20488;-77
2023/05/09 03:33:51;;;;;;;31.08;13.73;;;14.30;99.90;;;;;;5015184;28;20026;-77
2023/05/09 03:36:17;;;;;;;30.50;11.43;;;13.90;99.90;;;;;;5015694;28;20053;-77
2023/05/09 03:38:42;;;;;;;30.20;12.55;;;13.90;99.90;;;;;;5015424;28;20051;-77
2023/05/09 03:41:08;;;;;;;36.85;12.45;;;13.90;99.90;;;;;;5013847;28;20389;-77
2023/05/09 03:43:34;;;;;;;32.83;14.25;;;14.00;99.90;;;;;;5015210;28;20393;-77
2023/05/09 03:45:59;;;;;;;34.65;12.48;;;13.90;99.90;;;;;;5014950;28;20037;-77
2023/05/09 03:48:25;;;;;;;30.52;12.00;;;13.90;99.90;;;;;;5014796;28;20058;-77
2023/05/09 03:50:51;;;;;;;36.35;13.52;;;13.90;99.90;;;;;;5015122;28;20017;-77
2023/05/09 03:53:16;;;;;;;33.28;12.77;;;13.80;99.90;;;;;;5015119;28;20393;-77
2023/05/09 03:55:42;;;;;;;35.88;13.43;;;13.80;99.90;;;;;;5013091;28;20045;-77
2023/05/09 03:58:07;;;;;;;29.08;12.30;;;13.80;99.90;;;;;;5015011;28;20014;-77
2023/05/09 04:00:33;;;;;;;32.03;13.90;;;14.40;99.90;;;;;;5014747;28;20022;-77
2023/05/09 04:02:59;;;;;;;38.08;13.38;;;14.20;99.90;;;;;;5030127;28;20053;-77
2023/05/09 04:05:25;;;;;;;31.75;12.70;;;13.70;99.90;;;;;;5014759;28;20473;-77
2023/05/09 04:07:51;;;;;;;31.58;12.45;;;13.70;99.90;;;;;;5014933;28;20088;-77
2023/05/09 04:10:17;;;;;;;34.55;13.95;;;13.70;99.90;;;;;;5014643;28;20026;-77
2023/05/09 04:12:42;;;;;;;38.83;14.10;;;13.70;99.90;;;;;;5013204;28;20057;-77
2023/05/09 04:15:08;;;;;;;32.22;12.95;;;13.70;99.90;;;;;;5014897;28;20085;-77
2023/05/09 04:17:34;;;;;;;36.60;13.82;;;13.70;99.90;;;;;;5014416;28;20105;-77
2023/05/09 04:20:00;;;;;;;31.05;13.70;;;13.60;99.90;;;;;;5014608;28;20057;-77
2023/05/09 04:22:25;;;;;;;36.60;14.15;;;13.70;99.90;;;;;;5014601;28;20497;-77
2023/05/09 04:24:51;;;;;;;32.03;13.60;;;13.70;99.90;;;;;;5014279;28;20076;-77
2023/05/09 04:27:16;;;;;;;33.60;12.93;;;13.70;99.90;;;;;;5030306;28;20366;-77
2023/05/09 04:29:42;;;;;;;38.00;12.95;;;14.10;99.90;;;;;;5029895;28;20545;-77
2023/05/09 04:32:07;;;;;;;25.88;11.20;;;13.70;99.90;;;;;;5014096;28;20038;-77
2023/05/09 04:34:33;;;;;;;30.75;11.95;;;13.70;99.90;;;;;;5014120;28;20026;-77
2023/05/09 04:36:58;;;;;;;32.92;11.50;;;13.80;99.90;;;;;;5014227;28;20108;-77
2023/05/09 04:39:24;;;;;;;28.33;12.43;;;13.70;99.90;;;;;;5014132;28;20049;-77
2023/05/09 04:41:50;;;;;;;27.17;12.57;;;13.80;99.90;;;;;;5013791;28;20093;-77
2023/05/09 04:44:16;;;;;;;24.60;10.85;;;13.80;99.90;;;;;;5012774;28;20104;-77
2023/05/09 04:46:42;;;;;;;26.98;11.00;;;13.80;99.90;;;;;;5012792;28;20392;-77
2023/05/09 04:49:08;;;;;;;24.42;10.65;;;13.80;99.90;;;;;;5012599;28;20126;-77
2023/05/09 04:51:33;;;;;;;28.35;11.55;;;13.80;99.90;;;;;;5029103;28;20053;-77
2023/05/09 04:53:59;;;;;;;23.23;10.05;;;13.90;99.90;;;;;;5012796;28;20033;-77
2023/05/09 04:56:25;;;;;;;23.60;9.70;;;14.20;99.90;;;;;;5013873;28;20049;-77
2023/05/09 04:58:51;;;;;;;21.88;9.32;;;14.10;99.90;;;;;;5014049;28;20101;-77
2023/05/09 05:01:17;;;;;;;20.17;9.80;;;14.10;99.90;;;;;;5013877;28;20079;-77
2023/05/09 05:03:44;;;;;;;20.48;10.35;;;14.20;99.90;;;;;;5014082;28;20022;-77
2023/05/09 05:06:10;;;;;;;19.23;9.10;;;14.20;99.90;;;;;;5012592;28;20026;-77
2023/05/09 05:08:36;;;;;;;34.95;9.75;;;14.20;99.90;;;;;;5013857;28;20022;-77
2023/05/09 05:11:01;;;;;;;19.73;9.80;;;14.20;99.90;;;;;;5013791;28;20559;-77
2023/05/09 05:13:27;;;;;;;25.08;9.50;;;14.30;99.90;;;;;;5013906;28;20030;-77
2023/05/09 05:15:52;;;;;;;25.60;10.05;;;14.40;99.90;;;;;;5013566;28;20132;-77
2023/05/09 05:18:18;;;;;;;20.05;9.27;;;14.40;99.90;;;;;;5013598;28;20025;-77
2023/05/09 05:20:43;;;;;;;18.00;8.07;;;14.50;99.90;;;;;;5013635;28;20022;-77
2023/05/09 05:23:09;;;;;;;20.38;8.57;;;14.50;99.90;;;;;;5013609;28;20018;-77
2023/05/09 05:25:35;;;;;;;20.92;8.73;;;14.60;99.90;;;;;;5013757;28;20080;-77
2023/05/09 05:28:01;;;;;;;17.73;8.02;;;14.60;99.90;;;;;;5012147;28;20034;-77
2023/05/09 05:30:27;;;;;;;17.35;7.65;;;16.00;99.90;;;;;;5013615;28;20068;-77
2023/05/09 05:32:52;;;;;;;20.23;9.05;;;14.80;99.90;;;;;;5012458;28;20030;-77
2023/05/09 05:35:20;;;;;;;15.43;7.53;;;14.80;99.90;;;;;;5028664;28;20086;-77
2023/05/09 05:37:46;;;;;;;17.23;8.25;;;14.90;99.90;;;;;;5029001;28;20018;-77
2023/05/09 05:40:11;;;;;;;18.08;8.88;;;14.90;99.90;;;;;;5013339;28;20029;-77
2023/05/09 05:42:37;;;;;;;18.67;8.70;;;15.60;99.90;;;;;;5028540;28;20389;-77
2023/05/09 05:45:03;;;;;;;17.15;7.68;;;15.10;99.90;;;;;;5011971;28;20022;-76
2023/05/09 05:47:32;;;;;;;18.13;7.95;;;15.10;99.90;;;;;;5013308;28;20033;-77
2023/05/09 05:50:01;;;;;;;22.10;8.30;;;15.10;99.90;;;;;;5013427;28;20017;-77
2023/05/09 05:52:27;;;;;;;;;;;15.20;99.90;;;;;;5013755;28;20373;-77
2023/05/09 05:54:53;;;;;;;18.35;8.70;;;15.10;99.90;;;;;;5017326;28;20013;-77
2023/05/09 05:57:19;;;;;;;16.42;7.75;;;15.10;99.90;;;;;;5015801;28;20112;-77
2023/05/09 05:59:49;;;;;;;16.23;7.97;;;15.10;99.90;;;;;;5017009;28;20029;-77
2023/05/09 06:02:16;;;;;;;15.30;7.68;;;15.00;99.90;;;;;;5017053;28;20026;-77
2023/05/09 06:04:42;;;;;;;16.67;7.45;;;15.00;99.90;;;;;;5017084;28;20022;-77
2023/05/09 06:07:08;;;;;;;18.85;8.57;;;15.00;99.90;;;;;;5017587;28;20037;-77
2023/05/09 06:09:33;;;;;;;19.50;9.13;;;14.90;99.90;;;;;;5017027;28;20025;-77
2023/05/09 06:11:59;;;;;;;15.57;8.48;;;15.00;99.90;;;;;;5016834;28;20122;-77
2023/05/09 06:14:25;;;;;;;17.70;8.30;;;14.90;99.90;;;;;;5017012;28;20030;-77
2023/05/09 06:16:51;;;;;;;20.30;8.30;;;14.90;99.90;;;;;;5031801;28;20026;-77
2023/05/09 06:19:17;;;;;;;17.80;8.20;;;14.80;99.90;;;;;;5016639;28;20105;-77
2023/05/09 06:21:43;;;;;;;22.75;9.10;;;14.80;99.90;;;;;;5016504;28;20065;-77
2023/05/09 06:24:08;;;;;;;19.25;8.18;;;14.80;99.90;;;;;;5015067;28;20048;-77
2023/05/09 06:26:34;;;;;;;21.55;8.55;;;14.80;99.90;;;;;;5015336;28;20018;-76
2023/05/09 06:29:00;;;;;;;19.73;8.30;;;14.80;99.90;;;;;;5014730;28;20037;-77
2023/05/09 06:31:25;;;;;;;24.02;8.77;;;14.80;99.90;;;;;;5014306;28;20022;-77
2023/05/09 06:33:51;;;;;;;19.42;8.40;;;14.80;99.90;;;;;;5016623;28;20025;-77
2023/05/09 06:36:17;;;;;;;19.40;8.20;;;14.80;99.90;;;;;;5014960;28;20022;-76
2023/05/09 06:38:42;;;;;;;21.25;8.60;;;14.80;99.90;;;;;;5016684;28;20030;-77
2023/05/09 06:41:08;;;;;;;21.25;8.40;;;14.80;99.90;;;;;;5031618;28;20508;-77
2023/05/09 06:43:33;;;;;;;19.67;8.73;;;14.80;99.90;;;;;;5016940;28;20025;-77
2023/05/09 06:45:59;;;;;;;17.50;7.88;;;14.70;99.90;;;;;;5016415;28;20481;-77
2023/05/09 06:48:25;;;;;;;17.92;8.45;;;15.40;99.90;;;;;;5014836;28;20034;-77
2023/05/09 06:50:51;;;;;;;20.70;8.68;;;14.70;99.90;;;;;;5016427;28;20022;-77
2023/05/09 06:53:16;;;;;;;19.58;8.13;;;14.70;99.90;;;;;;5016170;28;20112;-77
2023/05/09 06:55:42;;;;;;;18.95;9.02;;;14.80;99.90;;;;;;5016142;28;20028;-77
2023/05/09 06:58:08;;;;;;;16.48;8.45;;;14.80;99.90;;;;;;5016004;28;20022;-77
2023/05/09 07:00:34;;;;;;;18.65;8.35;;;14.80;99.90;;;;;;5016073;28;20022;-77
2023/05/09 07:03:00;;;;;;;19.33;8.05;;;15.00;99.90;;;;;;5016388;28;20036;-77
2023/05/09 07:05:25;;;;;;;20.70;7.50;;;14.70;99.90;;;;;;5015528;28;20026;-77
2023/05/09 07:07:53;;;;;;;23.13;7.82;;;14.70;99.90;;;;;;5015877;28;20508;-77
2023/05/09 07:10:20;;;;;;;20.38;8.52;;;14.80;99.90;;;;;;5015809;28;20018;-77
2023/05/09 07:12:46;;;;;;;20.08;9.15;;;14.80;99.90;;;;;;5014582;28;20084;-77
2023/05/09 07:15:12;;;;;;;19.48;7.45;;;14.80;99.90;;;;;;5014476;28;20026;-77
2023/05/09 07:17:38;;;;;;;18.60;7.82;;;14.80;99.90;;;;;;5015758;28;20026;-77
2023/05/09 07:20:05;;;;;;;18.30;7.82;;;14.80;99.90;;;;;;5015782;28;20068;-77
2023/05/09 07:22:31;;;;;;;15.85;7.50;;;14.90;99.90;;;;;;5016083;28;20412;-77
2023/05/09 07:24:57;;;;;;;16.95;8.27;;;14.90;99.90;;;;;;5015670;28;20026;-77
2023/05/09 07:27:22;;;;;;;13.88;6.40;;;14.90;99.90;;;;;;5015696;28;20026;-77
2023/05/09 07:29:51;;;;;;;13.93;6.78;;;15.00;99.90;;;;;;5016114;28;20033;-77
2023/05/09 07:32:19;;;;;;;17.10;8.10;;;15.00;99.90;;;;;;5015582;28;20026;-77
2023/05/09 07:34:44;;;;;;;14.43;7.35;;;15.00;99.90;;;;;;5014270;28;20139;-77
2023/05/09 07:37:10;;;;;;;13.52;6.75;;;15.00;99.90;;;;;;5015388;28;20028;-77
2023/05/09 07:39:36;;;;;;;15.13;6.93;;;15.70;99.90;;;;;;5015484;28;20021;-77
2023/05/09 07:42:01;;;;;;;13.50;5.85;;;15.00;99.90;;;;;;5015438;28;20030;-77
2023/05/09 07:44:27;;;;;;;13.25;6.38;;;15.00;99.90;;;;;;5015749;28;20018;-77
2023/05/09 07:46:54;;;;;;;16.83;7.60;;;15.00;99.90;;;;;;5030481;28;20029;-77
2023/05/09 07:49:20;;;;;;;14.55;6.93;;;15.00;99.90;;;;;;5015100;28;20049;-77
2023/05/09 07:51:46;;;;;;;14.50;6.65;;;15.00;99.90;;;;;;5014953;28;20096;-77
2023/05/09 07:54:11;;;;;;;16.45;7.85;;;15.00;99.90;;;;;;5015069;28;20029;-77
2023/05/09 07:56:37;;;;;;;16.27;6.95;;;15.10;99.90;;;;;;5014857;28;20416;-77
2023/05/09 07:59:02;;;;;;;15.93;7.53;;;15.70;99.90;;;;;;5014934;28;20535;-77
2023/05/09 08:01:28;;;;;;;16.60;8.18;;;15.20;99.90;;;;;;5014898;28;20046;-77
2023/05/09 08:03:53;;;;;;;16.25;7.70;;;15.20;99.90;;;;;;5013584;28;20025;-77
2023/05/09 08:06:19;;;;;;;15.70;7.25;;;15.20;99.90;;;;;;5014833;28;20033;-77
2023/05/09 08:08:45;;;;;;;12.75;6.88;;;15.80;99.90;;;;;;5014710;28;20037;-77
2023/05/09 08:11:10;;;;;;;14.80;7.53;;;15.20;99.90;;;;;;5015362;28;20035;-77
2023/05/09 08:13:36;;;;;;;12.70;6.93;;;15.30;99.90;;;;;;5014702;28;20100;-77
2023/05/09 08:16:02;;;;;;;16.60;7.40;;;;;;;;;;5014441;28;20029;-77
2023/05/09 08:18:27;;;;;;;16.13;7.78;;;15.20;99.90;;;;;;5014646;28;20022;-77
2023/05/09 08:20:53;;;;;;;14.10;7.00;;;15.30;99.90;;;;;;5014586;28;20028;-77
2023/05/09 08:23:18;;;;;;;13.90;6.72;;;15.30;99.90;;;;;;5014534;28;20125;-77
2023/05/09 08:25:44;;;;;;;11.38;5.97;;;15.50;99.90;;;;;;5015120;28;20026;-77
2023/05/09 08:28:10;;;;;;;12.77;6.38;;;15.40;99.90;;;;;;5029614;28;20044;-77
2023/05/09 08:30:35;;;;;;;10.10;5.97;;;15.30;99.90;;;;;;5014343;28;20018;-77
2023/05/09 08:33:01;;;;;;;11.20;5.80;;;15.30;99.90;;;;;;5014489;28;20034;-77
2023/05/09 08:35:26;;;;;;;7.53;4.82;;;15.30;99.90;;;;;;5014726;28;20072;-77
2023/05/09 08:37:52;;;;;;;11.65;5.47;;;15.30;99.90;;;;;;5014274;28;20674;-77
2023/05/09 08:40:18;;;;;;;9.85;4.38;;;15.20;99.90;;;;;;5014292;28;20036;-77
2023/05/09 08:42:44;;;;;;;9.93;4.72;;;15.30;99.90;;;;;;5014169;28;20477;-77
2023/05/09 08:45:13;;;;;;;8.23;5.00;;;15.30;99.90;;;;;;5014738;28;20045;-77
2023/05/09 08:47:41;;;;;;;10.60;4.47;;;15.30;99.90;;;;;;5013097;28;20040;-77
2023/05/09 08:50:07;;;;;;;9.85;5.13;;;15.40;99.90;;;;;;5014127;28;20033;-77
2023/05/09 08:52:34;;;;;;;9.15;4.75;;;15.40;99.90;;;;;;5012856;28;20028;-77
2023/05/09 08:55:00;;;;;;;7.72;3.95;;;15.50;99.90;;;;;;5012875;28;20018;-77
2023/05/09 08:57:26;;;;;;;7.45;4.57;;;15.60;99.90;;;;;;5013939;28;20076;-77
2023/05/09 08:59:52;;;;;;;7.47;3.60;;;15.60;99.90;;;;;;5014164;28;20026;-77
2023/05/09 09:02:18;;;;;;;10.85;4.15;;;15.60;99.90;;;;;;5013958;28;20101;-77
2023/05/09 09:04:44;;;;;;;6.57;3.75;;;15.60;99.90;;;;;;5012912;28;20021;-77
2023/05/09 09:07:12;;;;;;;9.00;4.03;;;15.50;99.90;;;;;;5014084;28;20026;-77
2023/05/09 09:09:44;;;;;;;8.23;4.03;;;15.50;99.90;;;;;;5014400;28;20029;-77
2023/05/09 09:12:11;;;;;;;7.78;4.68;;;15.50;99.90;;;;;;5013944;28;20430;-77
2023/05/09 09:14:38;;;;;;;6.72;3.70;;;15.50;99.90;;;;;;5013711;28;20392;-77
2023/05/09 09:17:06;;;;;;;5.22;3.63;;;15.50;99.90;;;;;;5013665;28;20022;-77
2023/05/09 09:19:34;;;;;;;9.02;4.30;;;15.50;99.90;;;;;;5013754;28;20021;-77
2023/05/09 09:22:03;;;;;;;6.82;4.13;;;15.50;99.90;;;;;;5013839;28;20381;-77
2023/05/09 09:24:30;;;;;;;8.27;4.15;;;15.50;99.90;;;;;;5012332;28;20018;-77
2023/05/09 09:26:56;;;;;;;7.07;4.00;;;15.50;99.90;;;;;;5012326;28;20087;-77
2023/05/09 09:29:21;;;;;;;5.70;3.60;;;15.50;99.90;;;;;;5013558;28;20096;-77
2023/05/09 09:31:52;;;;;;;7.47;4.43;;;15.60;99.90;;;;;;5012323;28;20396;-77
2023/05/09 09:34:22;;;;;;;10.68;4.57;;;15.60;99.90;;;;;;5013718;28;20080;-77
2023/05/09 09:36:48;;;;;;;5.32;3.60;;;16.30;99.90;;;;;;5012807;28;20033;-77
2023/05/09 09:39:14;;;;;;;6.20;3.53;;;15.60;99.90;;;;;;5012331;28;20022;-77
2023/05/09 09:41:40;;;;;;;6.63;3.75;;;15.70;99.90;;;;;;5013489;28;20049;-77
2023/05/09 09:44:16;;;;;;;6.97;4.13;;;15.70;99.90;;;;;;5012531;28;20022;-77
2023/05/09 09:46:54;;;;;;;6.68;3.70;;;15.70;99.90;;;;;;5013983;28;20026;-77
2023/05/09 09:49:22;;;;;;;7.37;4.33;;;15.70;99.90;;;;;;5012037;28;20030;-77
2023/05/09 09:51:54;;;;;;;7.55;4.90;;;15.70;99.90;;;;;;5011913;28;20037;-77
2023/05/09 09:54:20;;;;;;;7.30;4.10;;;15.70;99.90;;;;;;5012110;28;20053;-77
2023/05/09 09:56:52;;;;;;;10.27;4.10;;;16.50;99.90;;;;;;5011986;28;20113;-77
2023/05/09 09:59:23;;;;;;;5.72;3.15;;;15.70;99.90;;;;;;5013734;28;20022;-77
2023/05/09 10:02:03;;;;;;;5.90;3.40;;;15.70;99.90;;;;;;5011882;28;20029;-77
2023/05/09 10:04:40;;;;;;;7.25;3.03;;;15.70;99.90;;;;;;5011967;28;20536;-77
2023/05/09 10:07:09;;;;;;;5.75;3.25;;;15.60;99.90;;;;;;5013885;28;20029;-77
2023/05/09 10:09:38;;;;;;;5.80;3.10;;;15.60;99.90;;;;;;5013181;28;20100;-77
2023/05/09 10:12:06;;;;;;;4.22;2.42;;;15.60;99.90;;;;;;5011909;28;20026;-77
2023/05/09 10:14:34;;;;;;;6.53;2.83;;;15.60;99.90;;;;;;5013127;28;20018;-77
2023/05/09 10:17:01;;;;;;;6.30;3.38;;;15.60;99.90;;;;;;5013127;28;20053;-76
2023/05/09 10:19:28;;;;;;;5.90;2.53;;;15.60;99.90;;;;;;5012991;28;20073;-77
2023/05/09 10:22:03;;;;;;;7.88;2.55;;;15.60;99.90;;;;;;5012962;28;20088;-77
2023/05/09 10:24:50;;;;;;;4.72;2.60;;;15.60;99.90;;;;;;5011751;28;20026;-77
2023/05/09 10:27:21;;;;;;;5.72;2.78;;;15.50;99.90;;;;;;5012985;28;20036;-77
2023/05/09 10:30:01;;;;;;;7.97;2.65;;;15.40;99.90;;;;;;5013383;28;20030;-77
2023/05/09 10:32:37;;;;;;;3.15;2.20;;;15.40;99.90;;;;;;5013254;28;20053;-77
2023/05/09 10:35:09;;;;;;;3.75;2.00;;;15.50;99.90;;;;;;5013567;28;20398;-77
2023/05/09 10:37:36;;;;;;;8.15;3.22;;;15.40;99.90;;;;;;5011593;28;20033;-77
2023/05/09 10:40:03;;;;;;;3.40;2.53;;;15.40;99.90;;;;;;5015687;28;20470;-77
2023/05/09 10:42:33;;;;;;;4.45;2.58;;;;;;;;;;5015037;28;20022;-77
2023/05/09 10:44:58;;;;;;;5.03;2.58;;;15.30;99.90;;;;;;5014998;28;20025;-77
2023/05/09 10:47:36;;;;;;;4.90;2.42;;;15.50;99.90;;;;;;5014959;28;20101;-77
2023/05/09 10:50:03;;;;;;;4.45;2.90;;;16.50;99.90;;;;;;5016495;28;20026;-77
2023/05/09 10:52:34;;;;;;;4.88;3.13;;;15.60;99.90;;;;;;5016346;28;20018;-77
2023/05/09 10:55:04;;;;;;;5.78;3.35;;;15.60;99.90;;;;;;5016273;28;20029;-77
2023/05/09 10:57:31;;;;;;;4.38;2.33;;;15.70;99.90;;;;;;5016060;28;20375;-77
2023/05/09 10:59:59;;;;;;;5.05;2.88;;;15.70;99.90;;;;;;5014968;28;20022;-77
2023/05/09 11:02:33;;;;;;;5.53;2.67;;;16.80;99.90;;;;;;5014862;28;20026;-77
2023/05/09 11:05:18;;;;;;;7.55;2.60;;;15.80;99.90;;;;;;5015947;28;20469;-77
2023/05/09 11:07:44;;;;;;;6.75;3.20;;;15.60;99.90;;;;;;5014697;28;20087;-77
2023/05/09 11:10:17;;;;;;;5.43;2.70;;;15.70;99.90;;;;;;5016092;28;20017;-77
2023/05/09 11:12:59;;;;;;;5.22;2.92;;;15.50;99.90;;;;;;5015915;28;20022;-77
2023/05/09 11:15:28;;;;;;;6.45;3.30;;;15.60;99.90;;;;;;5014493;28;20049;-77
2023/05/09 11:18:10;;;;;;;8.93;2.65;;;15.50;99.90;;;;;;5015619;28;20160;-77
2023/05/09 11:20:42;;;;;;;4.63;3.22;;;15.50;99.90;;;;;;5014501;28;20014;-77
2023/05/09 11:23:16;;;;;;;8.60;3.65;;;15.50;99.90;;;;;;5015837;28;20026;-77
2023/05/09 11:25:44;;;;;;;5.55;2.78;;;15.60;99.90;;;;;;5016294;28;20029;-77
2023/05/09 11:28:11;;;;;;;6.28;3.17;;;15.60;99.90;;;;;;5015430;28;20124;-77
2023/05/09 11:30:41;;;;;;;5.20;3.05;;;15.60;99.90;;;;;;5015647;28;20370;-77
2023/05/09 11:33:22;;;;;;;3.15;2.08;;;15.50;99.90;;;;;;5015423;28;20029;-77
2023/05/09 11:36:14;;;;;;;5.05;2.78;;;15.60;99.90;;;;;;5030569;28;20033;-77
2023/05/09 11:38:41;;;;;;;5.68;2.90;;;15.60;99.90;;;;;;5015245;28;20022;-77
2023/05/09 11:41:07;;;;;;;8.60;3.97;;;15.50;99.90;;;;;;5015420;28;20010;-77
2023/05/09 11:43:35;;;;;;;9.07;3.65;;;15.50;99.90;;;;;;5015335;28;20105;-77
2023/05/09 11:46:02;;;;;;;8.57;3.67;;;15.50;99.90;;;;;;5013888;28;20497;-77
2023/05/09 11:48:28;;;;;;;5.53;3.47;;;;;;;;;;5013855;28;20551;-77
2023/05/09 11:50:53;;;;;;;7.72;4.13;;;;;;;;;;5012761;28;20034;-77
2023/05/09 11:53:19;;;;;;;4.53;2.95;;;15.60;99.90;;;;;;5015098;28;20397;-77
2023/05/09 11:55:45;;;;;;;7.45;3.22;;;15.90;99.90;;;;;;5014904;28;20026;-77
2023/05/09 11:58:12;;;;;;;8.55;4.07;;;15.70;99.90;;;;;;5030227;28;20382;-77
2023/05/09 12:00:43;;;;;;;7.25;3.65;;;16.00;99.90;;;;;;5015043;28;20018;-77
2023/05/09 12:03:09;;;;;;;6.55;2.95;;;15.70;99.90;;;;;;5013672;28;20371;-77
2023/05/09 12:05:38;;;;;;;8.15;3.45;;;15.60;99.90;;;;;;5013645;28;20084;-77
2023/05/09 12:08:05;;;;;;;4.82;2.78;;;15.60;99.90;;;;;;5013618;28;20041;-77
2023/05/09 12:10:31;;;;;;;4.18;2.90;;;15.60;99.90;;;;;;5013395;28;20393;-76
2023/05/09 12:12:56;;;;;;;5.22;2.47;;;15.50;99.90;;;;;;5014946;28;20022;-77
2023/05/09 12:15:22;;;;;;;4.80;2.50;;;15.50;99.90;;;;;;5015201;28;20030;-77
2023/05/09 12:18:06;;;;;;;3.90;2.88;;;15.60;99.90;;;;;;5014748;28;20026;-77
2023/05/09 12:20:45;;;;;;;4.63;2.88;;;15.60;99.90;;;;;;5014563;28;20033;-77
2023/05/09 12:23:13;;;;;;;7.38;3.78;;;15.70;99.90;;;;;;5015310;28;20042;-77
2023/05/09 12:25:55;;;;;;;8.65;3.95;;;15.60;99.90;;;;;;5014580;28;20087;-77
2023/05/09 12:28:23;;;;;;;6.32;3.85;;;15.80;99.90;;;;;;5013029;28;20030;-77
2023/05/09 12:30:50;;;;;;;5.65;3.28;;;15.90;99.90;;;;;;5014454;28;20034;-77
2023/05/09 12:33:16;;;;;;;4.20;2.92;;;15.90;99.90;;;;;;5014531;28;20104;-77
2023/05/09 12:35:46;;;;;;;5.55;3.10;;;15.90;99.90;;;;;;5013350;28;20057;-77
2023/05/09 12:38:20;;;;;;;5.20;2.70;;;16.00;99.90;;;;;;5014536;28;20022;-77
2023/05/09 12:41:02;;;;;;;4.82;3.15;;;16.00;99.90;;;;;;5015513;28;20028;-77